sensor_id;sensor_type;location;lat;lon;timestamp;P1;durP1;ratioP1;P2;durP2;ratioP2
75814;SDS011;64451;45.574;14.224;2023-02-01T00:01:51;19.17;;;6.28;;
75814;SDS011;64451;45.574;14.224;2023-02-01T00:03:52;13.82;;;4.68;;
75814;SDS011;64451;45.574;14.224;2023-02-01T00:05:58;9.48;;;5.10;;
75814;SDS011;64451;45.574;14.224;2023-02-01T00:07:59;7.95;;;3.45;;
75814;SDS011;64451;45.574;14.224;2023-02-01T00:10:00;14.10;;;4.65;;
75814;SDS011;64451;45.574;14.224;2023-02-01T00:12:00;9.48;;;4.85;;
75814;SDS011;64451;45.574;14.224;2023-02-01T00:14:02;8.45;;;3.78;;
75814;SDS011;64451;45.574;14.224;2023-02-01T00:16:04;13.02;;;4.00;;
75814;SDS011;64451;45.574;14.224;2023-02-01T00:18:05;13.20;;;5.13;;
75814;SDS011;64451;45.574;14.224;2023-02-01T00:20:06;13.80;;;6.05;;
75814;SDS011;64451;45.574;14.224;2023-02-01T00:22:07;11.27;;;5.53;;
75814;SDS011;64451;45.574;14.224;2023-02-01T00:24:08;9.50;;;5.93;;
75814;SDS011;64451;45.574;14.224;2023-02-01T00:28:17;7.10;;;3.67;;
75814;SDS011;64451;45.574;14.224;2023-02-01T00:30:18;13.82;;;5.72;;
75814;SDS011;64451;45.574;14.224;2023-02-01T00:32:18;10.43;;;6.15;;
75814;SDS011;64451;45.574;14.224;2023-02-01T00:34:19;10.98;;;4.57;;
75814;SDS011;64451;45.574;14.224;2023-02-01T00:36:20;12.82;;;5.03;;
75814;SDS011;64451;45.574;14.224;2023-02-01T00:38:21;18.67;;;6.60;;
75814;SDS011;64451;45.574;14.224;2023-02-01T00:40:21;11.45;;;6.18;;
75814;SDS011;64451;45.574;14.224;2023-02-01T00:42:21;11.93;;;6.18;;
75814;SDS011;64451;45.574;14.224;2023-02-01T00:44:21;27.00;;;6.57;;
75814;SDS011;64451;45.574;14.224;2023-02-01T00:46:22;12.05;;;4.78;;
75814;SDS011;64451;45.574;14.224;2023-02-01T00:48:23;8.77;;;4.63;;
75814;SDS011;64451;45.574;14.224;2023-02-01T00:50:24;12.80;;;5.40;;
75814;SDS011;64451;45.574;14.224;2023-02-01T00:52:24;10.52;;;4.10;;
75814;SDS011;64451;45.574;14.224;2023-02-01T00:54:24;10.40;;;5.10;;
75814;SDS011;64451;45.574;14.224;2023-02-01T00:56:25;7.35;;;3.92;;
75814;SDS011;64451;45.574;14.224;2023-02-01T00:58:27;7.85;;;4.07;;
75814;SDS011;64451;45.574;14.224;2023-02-01T01:00:27;12.45;;;5.68;;
75814;SDS011;64451;45.574;14.224;2023-02-01T01:02:28;10.55;;;4.63;;
75814;SDS011;64451;45.574;14.224;2023-02-01T01:04:28;10.48;;;4.22;;
75814;SDS011;64451;45.574;14.224;2023-02-01T01:06:29;8.52;;;4.30;;
75814;SDS011;64451;45.574;14.224;2023-02-01T01:08:31;11.52;;;4.65;;
75814;SDS011;64451;45.574;14.224;2023-02-01T01:10:32;6.07;;;3.03;;
75814;SDS011;64451;45.574;14.224;2023-02-01T01:12:32;11.60;;;3.95;;
75814;SDS011;64451;45.574;14.224;2023-02-01T01:14:33;5.32;;;2.40;;
75814;SDS011;64451;45.574;14.224;2023-02-01T01:16:33;6.72;;;2.50;;
75814;SDS011;64451;45.574;14.224;2023-02-01T01:18:34;7.35;;;2.88;;
75814;SDS011;64451;45.574;14.224;2023-02-01T01:20:35;13.10;;;4.10;;
75814;SDS011;64451;45.574;14.224;2023-02-01T01:22:37;17.40;;;4.25;;
75814;SDS011;64451;45.574;14.224;2023-02-01T01:24:38;17.77;;;3.83;;
75814;SDS011;64451;45.574;14.224;2023-02-01T01:26:38;10.80;;;4.45;;
75814;SDS011;64451;45.574;14.224;2023-02-01T01:28:39;5.65;;;3.38;;
75814;SDS011;64451;45.574;14.224;2023-02-01T01:30:39;7.10;;;3.60;;
75814;SDS011;64451;45.574;14.224;2023-02-01T01:32:39;8.13;;;3.45;;
75814;SDS011;64451;45.574;14.224;2023-02-01T01:34:39;11.70;;;4.88;;
75814;SDS011;64451;45.574;14.224;2023-02-01T01:36:40;12.50;;;5.80;;
75814;SDS011;64451;45.574;14.224;2023-02-01T01:38:40;3.70;;;2.40;;
75814;SDS011;64451;45.574;14.224;2023-02-01T01:40:44;10.13;;;4.50;;
75814;SDS011;64451;45.574;14.224;2023-02-01T01:42:45;10.10;;;3.53;;
75814;SDS011;64451;45.574;14.224;2023-02-01T01:45:03;10.88;;;4.47;;
75814;SDS011;64451;45.574;14.224;2023-02-01T01:47:05;6.80;;;3.05;;
75814;SDS011;64451;45.574;14.224;2023-02-01T01:51:12;8.40;;;3.78;;
75814;SDS011;64451;45.574;14.224;2023-02-01T01:53:18;13.70;;;4.80;;
75814;SDS011;64451;45.574;14.224;2023-02-01T01:55:22;12.43;;;4.80;;
75814;SDS011;64451;45.574;14.224;2023-02-01T01:57:30;16.67;;;4.35;;
75814;SDS011;64451;45.574;14.224;2023-02-01T01:59:34;10.75;;;6.10;;
75814;SDS011;64451;45.574;14.224;2023-02-01T02:01:37;15.48;;;4.75;;
75814;SDS011;64451;45.574;14.224;2023-02-01T02:03:39;11.90;;;5.47;;
75814;SDS011;64451;45.574;14.224;2023-02-01T02:05:42;9.85;;;3.80;;
75814;SDS011;64451;45.574;14.224;2023-02-01T02:07:45;20.23;;;4.63;;
75814;SDS011;64451;45.574;14.224;2023-02-01T02:09:48;14.23;;;5.05;;
75814;SDS011;64451;45.574;14.224;2023-02-01T02:11:48;13.13;;;4.50;;
75814;SDS011;64451;45.574;14.224;2023-02-01T02:13:50;7.32;;;4.22;;
75814;SDS011;64451;45.574;14.224;2023-02-01T02:25:27;8.20;;;5.00;;
75814;SDS011;64451;45.574;14.224;2023-02-01T02:38:45;7.05;;;2.72;;
75814;SDS011;64451;45.574;14.224;2023-02-01T02:40:57;9.55;;;2.95;;
75814;SDS011;64451;45.574;14.224;2023-02-01T02:43:11;18.17;;;3.95;;
75814;SDS011;64451;45.574;14.224;2023-02-01T02:45:46;14.40;;;4.85;;
75814;SDS011;64451;45.574;14.224;2023-02-01T02:48:28;11.75;;;4.72;;
75814;SDS011;64451;45.574;14.224;2023-02-01T02:50:41;4.70;;;2.80;;
75814;SDS011;64451;45.574;14.224;2023-02-01T02:53:27;9.70;;;4.63;;
75814;SDS011;64451;45.574;14.224;2023-02-01T02:56:02;6.18;;;2.78;;
75814;SDS011;64451;45.574;14.224;2023-02-01T02:58:24;7.82;;;4.25;;
75814;SDS011;64451;45.574;14.224;2023-02-01T03:00:43;6.60;;;3.45;;
75814;SDS011;64451;45.574;14.224;2023-02-01T03:03:03;8.27;;;2.67;;
75814;SDS011;64451;45.574;14.224;2023-02-01T03:05:22;7.90;;;4.28;;
75814;SDS011;64451;45.574;14.224;2023-02-01T03:09:44;8.05;;;1.98;;
75814;SDS011;64451;45.574;14.224;2023-02-01T03:11:47;4.63;;;1.88;;
75814;SDS011;64451;45.574;14.224;2023-02-01T03:18:29;6.55;;;3.20;;
75814;SDS011;64451;45.574;14.224;2023-02-01T03:20:34;10.38;;;3.60;;
75814;SDS011;64451;45.574;14.224;2023-02-01T03:24:39;17.10;;;3.42;;
75814;SDS011;64451;45.574;14.224;2023-02-01T03:26:45;8.88;;;4.43;;
75814;SDS011;64451;45.574;14.224;2023-02-01T03:28:53;6.30;;;3.15;;
75814;SDS011;64451;45.574;14.224;2023-02-01T03:30:57;11.18;;;3.55;;
75814;SDS011;64451;45.574;14.224;2023-02-01T03:32:59;7.20;;;3.50;;
75814;SDS011;64451;45.574;14.224;2023-02-01T03:35:01;5.30;;;3.28;;
75814;SDS011;64451;45.574;14.224;2023-02-01T03:37:06;15.63;;;2.88;;
75814;SDS011;64451;45.574;14.224;2023-02-01T03:39:15;9.07;;;3.92;;
75814;SDS011;64451;45.574;14.224;2023-02-01T03:41:45;7.78;;;2.13;;
75814;SDS011;64451;45.574;14.224;2023-02-01T03:46:17;7.75;;;2.75;;
75814;SDS011;64451;45.574;14.224;2023-02-01T03:48:23;5.35;;;3.00;;
75814;SDS011;64451;45.574;14.224;2023-02-01T03:50:26;4.60;;;2.40;;
75814;SDS011;64451;45.574;14.224;2023-02-01T03:52:30;3.47;;;2.67;;
75814;SDS011;64451;45.574;14.224;2023-02-01T03:54:37;8.20;;;4.30;;
75814;SDS011;64451;45.574;14.224;2023-02-01T03:56:38;9.73;;;3.00;;
75814;SDS011;64451;45.574;14.224;2023-02-01T03:58:44;6.97;;;3.33;;
75814;SDS011;64451;45.574;14.224;2023-02-01T04:00:59;13.45;;;2.92;;
75814;SDS011;64451;45.574;14.224;2023-02-01T04:03:00;8.68;;;3.15;;
75814;SDS011;64451;45.574;14.224;2023-02-01T04:05:02;7.00;;;2.97;;
75814;SDS011;64451;45.574;14.224;2023-02-01T04:07:03;4.80;;;2.55;;
75814;SDS011;64451;45.574;14.224;2023-02-01T04:09:03;5.35;;;2.83;;
75814;SDS011;64451;45.574;14.224;2023-02-01T04:11:04;10.40;;;4.65;;
75814;SDS011;64451;45.574;14.224;2023-02-01T04:13:04;7.25;;;3.58;;
75814;SDS011;64451;45.574;14.224;2023-02-01T04:15:05;5.75;;;2.17;;
75814;SDS011;64451;45.574;14.224;2023-02-01T04:17:06;5.18;;;3.38;;
75814;SDS011;64451;45.574;14.224;2023-02-01T04:19:06;5.63;;;2.97;;
75814;SDS011;64451;45.574;14.224;2023-02-01T04:21:07;7.22;;;3.63;;
75814;SDS011;64451;45.574;14.224;2023-02-01T04:23:07;3.05;;;2.60;;
75814;SDS011;64451;45.574;14.224;2023-02-01T04:25:07;5.05;;;3.42;;
75814;SDS011;64451;45.574;14.224;2023-02-01T04:27:08;9.32;;;2.33;;
75814;SDS011;64451;45.574;14.224;2023-02-01T04:29:09;6.88;;;2.63;;
75814;SDS011;64451;45.574;14.224;2023-02-01T04:31:10;10.85;;;3.13;;
75814;SDS011;64451;45.574;14.224;2023-02-01T04:33:10;3.83;;;1.40;;
75814;SDS011;64451;45.574;14.224;2023-02-01T04:35:13;8.93;;;3.78;;
75814;SDS011;64451;45.574;14.224;2023-02-01T04:37:14;4.53;;;2.20;;
75814;SDS011;64451;45.574;14.224;2023-02-01T04:39:14;3.20;;;1.85;;
75814;SDS011;64451;45.574;14.224;2023-02-01T04:41:14;9.30;;;3.22;;
75814;SDS011;64451;45.574;14.224;2023-02-01T04:43:18;7.25;;;2.80;;
75814;SDS011;64451;45.574;14.224;2023-02-01T04:45:18;3.90;;;2.75;;
75814;SDS011;64451;45.574;14.224;2023-02-01T04:47:19;3.78;;;2.40;;
75814;SDS011;64451;45.574;14.224;2023-02-01T04:49:19;10.00;;;3.45;;
75814;SDS011;64451;45.574;14.224;2023-02-01T04:51:21;4.87;;;3.20;;
75814;SDS011;64451;45.574;14.224;2023-02-01T04:53:22;10.45;;;4.22;;
75814;SDS011;64451;45.574;14.224;2023-02-01T04:55:22;6.28;;;3.38;;
75814;SDS011;64451;45.574;14.224;2023-02-01T04:57:22;12.13;;;5.38;;
75814;SDS011;64451;45.574;14.224;2023-02-01T04:59:23;4.22;;;2.92;;
75814;SDS011;64451;45.574;14.224;2023-02-01T05:01:23;8.50;;;2.83;;
75814;SDS011;64451;45.574;14.224;2023-02-01T05:03:27;10.65;;;4.10;;
75814;SDS011;64451;45.574;14.224;2023-02-01T05:05:27;8.13;;;3.42;;
75814;SDS011;64451;45.574;14.224;2023-02-01T05:07:28;6.03;;;3.28;;
75814;SDS011;64451;45.574;14.224;2023-02-01T05:09:28;5.78;;;2.15;;
75814;SDS011;64451;45.574;14.224;2023-02-01T05:11:29;8.98;;;4.07;;
75814;SDS011;64451;45.574;14.224;2023-02-01T05:13:47;6.28;;;3.63;;
75814;SDS011;64451;45.574;14.224;2023-02-01T05:15:49;9.40;;;3.67;;
75814;SDS011;64451;45.574;14.224;2023-02-01T05:17:50;4.38;;;2.88;;
75814;SDS011;64451;45.574;14.224;2023-02-01T05:19:50;8.73;;;4.22;;
75814;SDS011;64451;45.574;14.224;2023-02-01T05:21:51;5.68;;;3.55;;
75814;SDS011;64451;45.574;14.224;2023-02-01T05:23:51;8.20;;;2.83;;
75814;SDS011;64451;45.574;14.224;2023-02-01T05:26:10;4.40;;;2.90;;
75814;SDS011;64451;45.574;14.224;2023-02-01T05:28:10;9.82;;;4.20;;
75814;SDS011;64451;45.574;14.224;2023-02-01T05:30:10;6.18;;;4.22;;
75814;SDS011;64451;45.574;14.224;2023-02-01T05:32:11;3.25;;;2.30;;
75814;SDS011;64451;45.574;14.224;2023-02-01T05:34:11;5.65;;;2.88;;
75814;SDS011;64451;45.574;14.224;2023-02-01T05:36:13;5.63;;;2.78;;
75814;SDS011;64451;45.574;14.224;2023-02-01T05:38:13;8.20;;;2.47;;
75814;SDS011;64451;45.574;14.224;2023-02-01T05:40:13;3.75;;;2.13;;
75814;SDS011;64451;45.574;14.224;2023-02-01T05:42:14;5.68;;;3.10;;
75814;SDS011;64451;45.574;14.224;2023-02-01T05:44:14;3.72;;;2.22;;
75814;SDS011;64451;45.574;14.224;2023-02-01T05:46:15;6.70;;;3.28;;
75814;SDS011;64451;45.574;14.224;2023-02-01T05:48:15;5.88;;;1.90;;
75814;SDS011;64451;45.574;14.224;2023-02-01T05:50:16;3.70;;;2.08;;
75814;SDS011;64451;45.574;14.224;2023-02-01T05:52:16;6.28;;;3.30;;
75814;SDS011;64451;45.574;14.224;2023-02-01T05:54:19;8.02;;;4.13;;
75814;SDS011;64451;45.574;14.224;2023-02-01T05:56:19;11.40;;;3.65;;
75814;SDS011;64451;45.574;14.224;2023-02-01T05:58:19;5.00;;;3.30;;
75814;SDS011;64451;45.574;14.224;2023-02-01T06:00:20;8.13;;;2.60;;
75814;SDS011;64451;45.574;14.224;2023-02-01T06:02:21;6.25;;;2.22;;
75814;SDS011;64451;45.574;14.224;2023-02-01T06:04:21;3.92;;;2.50;;
75814;SDS011;64451;45.574;14.224;2023-02-01T06:06:22;9.73;;;3.85;;
75814;SDS011;64451;45.574;14.224;2023-02-01T06:08:22;8.45;;;2.97;;
75814;SDS011;64451;45.574;14.224;2023-02-01T06:10:25;4.85;;;3.15;;
75814;SDS011;64451;45.574;14.224;2023-02-01T06:12:26;9.75;;;4.97;;
75814;SDS011;64451;45.574;14.224;2023-02-01T06:14:28;7.03;;;4.35;;
75814;SDS011;64451;45.574;14.224;2023-02-01T06:16:29;5.40;;;3.00;;
75814;SDS011;64451;45.574;14.224;2023-02-01T06:18:29;12.52;;;4.88;;
75814;SDS011;64451;45.574;14.224;2023-02-01T06:20:30;11.98;;;4.15;;
75814;SDS011;64451;45.574;14.224;2023-02-01T06:22:30;10.07;;;4.72;;
75814;SDS011;64451;45.574;14.224;2023-02-01T06:24:31;5.47;;;2.95;;
75814;SDS011;64451;45.574;14.224;2023-02-01T06:26:31;6.85;;;3.33;;
75814;SDS011;64451;45.574;14.224;2023-02-01T06:28:33;11.02;;;4.80;;
75814;SDS011;64451;45.574;14.224;2023-02-01T06:30:34;6.15;;;3.38;;
75814;SDS011;64451;45.574;14.224;2023-02-01T06:32:34;4.30;;;2.58;;
75814;SDS011;64451;45.574;14.224;2023-02-01T06:34:34;7.22;;;3.13;;
75814;SDS011;64451;45.574;14.224;2023-02-01T06:36:35;7.40;;;4.15;;
75814;SDS011;64451;45.574;14.224;2023-02-01T06:38:35;9.15;;;2.88;;
75814;SDS011;64451;45.574;14.224;2023-02-01T06:40:36;11.07;;;5.97;;
75814;SDS011;64451;45.574;14.224;2023-02-01T06:42:36;3.65;;;2.58;;
75814;SDS011;64451;45.574;14.224;2023-02-01T06:44:37;3.78;;;2.20;;
75814;SDS011;64451;45.574;14.224;2023-02-01T06:46:37;11.13;;;5.75;;
75814;SDS011;64451;45.574;14.224;2023-02-01T06:48:38;10.45;;;4.35;;
75814;SDS011;64451;45.574;14.224;2023-02-01T06:50:38;12.00;;;5.35;;
75814;SDS011;64451;45.574;14.224;2023-02-01T06:52:38;14.35;;;5.38;;
75814;SDS011;64451;45.574;14.224;2023-02-01T06:54:39;10.20;;;3.83;;
75814;SDS011;64451;45.574;14.224;2023-02-01T06:56:39;8.35;;;4.05;;
75814;SDS011;64451;45.574;14.224;2023-02-01T06:58:39;5.35;;;2.65;;
75814;SDS011;64451;45.574;14.224;2023-02-01T07:00:40;5.47;;;3.47;;
75814;SDS011;64451;45.574;14.224;2023-02-01T07:02:40;9.98;;;3.78;;
75814;SDS011;64451;45.574;14.224;2023-02-01T07:04:41;11.82;;;3.63;;
75814;SDS011;64451;45.574;14.224;2023-02-01T07:06:41;3.83;;;2.08;;
75814;SDS011;64451;45.574;14.224;2023-02-01T07:08:41;4.90;;;2.58;;
75814;SDS011;64451;45.574;14.224;2023-02-01T07:10:42;6.70;;;3.33;;
75814;SDS011;64451;45.574;14.224;2023-02-01T07:12:42;6.10;;;3.47;;
75814;SDS011;64451;45.574;14.224;2023-02-01T07:14:42;7.82;;;4.32;;
75814;SDS011;64451;45.574;14.224;2023-02-01T07:16:43;12.27;;;6.50;;
75814;SDS011;64451;45.574;14.224;2023-02-01T07:18:43;17.60;;;6.97;;
75814;SDS011;64451;45.574;14.224;2023-02-01T07:20:49;8.32;;;4.00;;
75814;SDS011;64451;45.574;14.224;2023-02-01T07:22:57;8.43;;;4.35;;
75814;SDS011;64451;45.574;14.224;2023-02-01T07:24:57;6.25;;;3.15;;
75814;SDS011;64451;45.574;14.224;2023-02-01T07:26:57;9.68;;;5.07;;
75814;SDS011;64451;45.574;14.224;2023-02-01T07:28:58;9.23;;;5.22;;
75814;SDS011;64451;45.574;14.224;2023-02-01T07:31:02;9.55;;;4.80;;
75814;SDS011;64451;45.574;14.224;2023-02-01T07:33:06;21.38;;;4.80;;
75814;SDS011;64451;45.574;14.224;2023-02-01T07:35:07;11.73;;;4.07;;
75814;SDS011;64451;45.574;14.224;2023-02-01T07:37:07;10.48;;;5.00;;
75814;SDS011;64451;45.574;14.224;2023-02-01T07:39:08;11.25;;;3.95;;
75814;SDS011;64451;45.574;14.224;2023-02-01T07:41:08;8.68;;;5.53;;
75814;SDS011;64451;45.574;14.224;2023-02-01T07:43:09;14.43;;;7.22;;
75814;SDS011;64451;45.574;14.224;2023-02-01T07:45:09;15.80;;;5.43;;
75814;SDS011;64451;45.574;14.224;2023-02-01T07:47:10;14.52;;;6.28;;
75814;SDS011;64451;45.574;14.224;2023-02-01T07:49:10;16.77;;;7.57;;
75814;SDS011;64451;45.574;14.224;2023-02-01T07:51:13;23.00;;;7.67;;
75814;SDS011;64451;45.574;14.224;2023-02-01T07:53:17;12.55;;;6.03;;
75814;SDS011;64451;45.574;14.224;2023-02-01T07:55:18;22.95;;;8.00;;
75814;SDS011;64451;45.574;14.224;2023-02-01T07:57:18;28.17;;;8.65;;
75814;SDS011;64451;45.574;14.224;2023-02-01T07:59:19;13.73;;;6.35;;
75814;SDS011;64451;45.574;14.224;2023-02-01T08:01:23;19.70;;;6.10;;
75814;SDS011;64451;45.574;14.224;2023-02-01T08:03:25;12.57;;;6.47;;
75814;SDS011;64451;45.574;14.224;2023-02-01T08:05:26;10.98;;;5.32;;
75814;SDS011;64451;45.574;14.224;2023-02-01T08:07:27;8.93;;;5.10;;
75814;SDS011;64451;45.574;14.224;2023-02-01T08:09:29;14.70;;;5.80;;
75814;SDS011;64451;45.574;14.224;2023-02-01T08:11:31;12.82;;;5.03;;
75814;SDS011;64451;45.574;14.224;2023-02-01T08:13:32;13.90;;;5.28;;
75814;SDS011;64451;45.574;14.224;2023-02-01T08:15:34;15.55;;;6.13;;
75814;SDS011;64451;45.574;14.224;2023-02-01T08:17:34;13.65;;;6.05;;
75814;SDS011;64451;45.574;14.224;2023-02-01T08:19:34;21.23;;;8.63;;
75814;SDS011;64451;45.574;14.224;2023-02-01T08:21:35;33.28;;;15.38;;
75814;SDS011;64451;45.574;14.224;2023-02-01T08:23:39;29.98;;;10.60;;
75814;SDS011;64451;45.574;14.224;2023-02-01T08:25:40;20.57;;;8.87;;
75814;SDS011;64451;45.574;14.224;2023-02-01T08:27:40;13.98;;;6.18;;
75814;SDS011;64451;45.574;14.224;2023-02-01T08:29:40;17.00;;;9.00;;
75814;SDS011;64451;45.574;14.224;2023-02-01T08:31:41;20.77;;;8.57;;
75814;SDS011;64451;45.574;14.224;2023-02-01T08:33:42;21.60;;;7.60;;
75814;SDS011;64451;45.574;14.224;2023-02-01T08:35:43;24.13;;;7.90;;
75814;SDS011;64451;45.574;14.224;2023-02-01T08:37:44;17.80;;;8.20;;
75814;SDS011;64451;45.574;14.224;2023-02-01T08:39:44;22.83;;;6.97;;
75814;SDS011;64451;45.574;14.224;2023-02-01T08:41:44;19.67;;;9.93;;
75814;SDS011;64451;45.574;14.224;2023-02-01T08:44:05;21.38;;;9.63;;
75814;SDS011;64451;45.574;14.224;2023-02-01T08:46:05;30.50;;;10.02;;
75814;SDS011;64451;45.574;14.224;2023-02-01T08:48:06;18.00;;;8.43;;
75814;SDS011;64451;45.574;14.224;2023-02-01T08:50:07;23.23;;;9.95;;
75814;SDS011;64451;45.574;14.224;2023-02-01T08:52:08;25.50;;;11.55;;
75814;SDS011;64451;45.574;14.224;2023-02-01T08:54:09;19.95;;;10.02;;
75814;SDS011;64451;45.574;14.224;2023-02-01T08:56:10;23.08;;;10.70;;
75814;SDS011;64451;45.574;14.224;2023-02-01T08:58:11;18.25;;;8.35;;
75814;SDS011;64451;45.574;14.224;2023-02-01T09:00:14;17.52;;;7.82;;
75814;SDS011;64451;45.574;14.224;2023-02-01T09:04:16;19.67;;;6.25;;
75814;SDS011;64451;45.574;14.224;2023-02-01T09:06:17;11.85;;;7.15;;
75814;SDS011;64451;45.574;14.224;2023-02-01T09:08:17;22.45;;;10.73;;
75814;SDS011;64451;45.574;14.224;2023-02-01T09:10:20;18.95;;;8.82;;
75814;SDS011;64451;45.574;14.224;2023-02-01T09:12:20;20.52;;;10.65;;
75814;SDS011;64451;45.574;14.224;2023-02-01T09:14:20;14.15;;;8.70;;
75814;SDS011;64451;45.574;14.224;2023-02-01T09:16:21;20.40;;;9.07;;
75814;SDS011;64451;45.574;14.224;2023-02-01T09:18:21;17.33;;;8.63;;
75814;SDS011;64451;45.574;14.224;2023-02-01T09:20:22;18.15;;;9.95;;
75814;SDS011;64451;45.574;14.224;2023-02-01T09:22:24;24.97;;;9.53;;
75814;SDS011;64451;45.574;14.224;2023-02-01T09:24:24;24.75;;;10.80;;
75814;SDS011;64451;45.574;14.224;2023-02-01T09:26:25;17.17;;;9.35;;
75814;SDS011;64451;45.574;14.224;2023-02-01T09:28:28;16.83;;;8.30;;
75814;SDS011;64451;45.574;14.224;2023-02-01T09:30:29;20.17;;;8.30;;
75814;SDS011;64451;45.574;14.224;2023-02-01T09:32:29;21.73;;;8.23;;
75814;SDS011;64451;45.574;14.224;2023-02-01T09:34:30;15.25;;;7.47;;
75814;SDS011;64451;45.574;14.224;2023-02-01T09:36:30;18.90;;;8.38;;
75814;SDS011;64451;45.574;14.224;2023-02-01T09:38:31;18.50;;;8.45;;
75814;SDS011;64451;45.574;14.224;2023-02-01T09:40:33;19.23;;;8.63;;
75814;SDS011;64451;45.574;14.224;2023-02-01T09:45:00;24.23;;;8.77;;
75814;SDS011;64451;45.574;14.224;2023-02-01T09:47:12;22.08;;;9.75;;
75814;SDS011;64451;45.574;14.224;2023-02-01T09:49:16;19.27;;;9.23;;
75814;SDS011;64451;45.574;14.224;2023-02-01T09:51:23;22.52;;;10.00;;
75814;SDS011;64451;45.574;14.224;2023-02-01T09:53:31;20.45;;;10.05;;
75814;SDS011;64451;45.574;14.224;2023-02-01T09:55:36;20.65;;;11.20;;
75814;SDS011;64451;45.574;14.224;2023-02-01T09:58:00;25.25;;;10.32;;
75814;SDS011;64451;45.574;14.224;2023-02-01T10:00:06;22.23;;;10.73;;
75814;SDS011;64451;45.574;14.224;2023-02-01T10:02:17;24.52;;;11.13;;
75814;SDS011;64451;45.574;14.224;2023-02-01T10:04:21;24.80;;;11.48;;
75814;SDS011;64451;45.574;14.224;2023-02-01T10:09:05;23.40;;;11.85;;
75814;SDS011;64451;45.574;14.224;2023-02-01T10:13:55;31.95;;;12.10;;
75814;SDS011;64451;45.574;14.224;2023-02-01T10:21:26;15.70;;;8.48;;
75814;SDS011;64451;45.574;14.224;2023-02-01T10:28:17;11.35;;;4.55;;
75814;SDS011;64451;45.574;14.224;2023-02-01T10:30:25;12.05;;;4.85;;
75814;SDS011;64451;45.574;14.224;2023-02-01T10:32:31;15.93;;;5.85;;
75814;SDS011;64451;45.574;14.224;2023-02-01T10:34:34;14.20;;;5.90;;
75814;SDS011;64451;45.574;14.224;2023-02-01T10:36:35;13.57;;;5.45;;
75814;SDS011;64451;45.574;14.224;2023-02-01T10:38:40;19.50;;;5.93;;
75814;SDS011;64451;45.574;14.224;2023-02-01T10:40:42;15.27;;;5.95;;
75814;SDS011;64451;45.574;14.224;2023-02-01T10:42:43;16.45;;;6.55;;
75814;SDS011;64451;45.574;14.224;2023-02-01T10:44:44;15.02;;;5.18;;
75814;SDS011;64451;45.574;14.224;2023-02-01T10:46:48;17.00;;;5.97;;
75814;SDS011;64451;45.574;14.224;2023-02-01T10:48:49;16.08;;;5.95;;
75814;SDS011;64451;45.574;14.224;2023-02-01T10:50:57;17.55;;;6.72;;
75814;SDS011;64451;45.574;14.224;2023-02-01T10:53:10;15.45;;;6.28;;
75814;SDS011;64451;45.574;14.224;2023-02-01T10:57:33;13.10;;;5.82;;
75814;SDS011;64451;45.574;14.224;2023-02-01T10:59:33;11.48;;;6.03;;
75814;SDS011;64451;45.574;14.224;2023-02-01T11:04:01;15.23;;;5.30;;
75814;SDS011;64451;45.574;14.224;2023-02-01T11:06:03;14.35;;;6.65;;
75814;SDS011;64451;45.574;14.224;2023-02-01T11:08:12;14.55;;;7.07;;
75814;SDS011;64451;45.574;14.224;2023-02-01T11:10:36;15.38;;;6.80;;
75814;SDS011;64451;45.574;14.224;2023-02-01T11:12:37;13.10;;;5.90;;
75814;SDS011;64451;45.574;14.224;2023-02-01T11:14:38;18.58;;;6.30;;
75814;SDS011;64451;45.574;14.224;2023-02-01T11:16:40;17.35;;;7.55;;
75814;SDS011;64451;45.574;14.224;2023-02-01T11:18:40;20.40;;;8.07;;
75814;SDS011;64451;45.574;14.224;2023-02-01T11:20:41;19.92;;;8.27;;
75814;SDS011;64451;45.574;14.224;2023-02-01T11:22:49;23.33;;;9.43;;
75814;SDS011;64451;45.574;14.224;2023-02-01T11:24:54;20.48;;;7.25;;
75814;SDS011;64451;45.574;14.224;2023-02-01T11:26:56;18.77;;;7.20;;
75814;SDS011;64451;45.574;14.224;2023-02-01T11:31:02;16.85;;;6.75;;
75814;SDS011;64451;45.574;14.224;2023-02-01T11:33:05;17.58;;;6.60;;
75814;SDS011;64451;45.574;14.224;2023-02-01T11:35:11;15.27;;;7.07;;
75814;SDS011;64451;45.574;14.224;2023-02-01T11:37:21;17.05;;;7.00;;
75814;SDS011;64451;45.574;14.224;2023-02-01T11:39:26;17.10;;;7.20;;
75814;SDS011;64451;45.574;14.224;2023-02-01T11:41:30;16.92;;;6.28;;
75814;SDS011;64451;45.574;14.224;2023-02-01T11:43:32;11.85;;;5.75;;
75814;SDS011;64451;45.574;14.224;2023-02-01T11:45:32;16.80;;;7.80;;
75814;SDS011;64451;45.574;14.224;2023-02-01T11:47:38;24.20;;;8.63;;
75814;SDS011;64451;45.574;14.224;2023-02-01T11:49:40;15.05;;;6.00;;
75814;SDS011;64451;45.574;14.224;2023-02-01T11:54:08;18.15;;;7.55;;
75814;SDS011;64451;45.574;14.224;2023-02-01T11:56:37;19.17;;;7.93;;
75814;SDS011;64451;45.574;14.224;2023-02-01T12:08:06;20.38;;;8.20;;
75814;SDS011;64451;45.574;14.224;2023-02-01T12:13:13;15.23;;;7.13;;
75814;SDS011;64451;45.574;14.224;2023-02-01T12:15:20;18.42;;;7.20;;
75814;SDS011;64451;45.574;14.224;2023-02-01T12:17:36;21.48;;;7.00;;
75814;SDS011;64451;45.574;14.224;2023-02-01T12:26:40;15.07;;;7.03;;
75814;SDS011;64451;45.574;14.224;2023-02-01T12:40:53;20.63;;;8.02;;
75814;SDS011;64451;45.574;14.224;2023-02-01T12:45:36;16.38;;;6.28;;
75814;SDS011;64451;45.574;14.224;2023-02-01T12:47:49;15.43;;;6.55;;
75814;SDS011;64451;45.574;14.224;2023-02-01T12:50:01;18.33;;;8.05;;
75814;SDS011;64451;45.574;14.224;2023-02-01T12:52:07;14.23;;;6.47;;
75814;SDS011;64451;45.574;14.224;2023-02-01T12:56:36;15.68;;;7.03;;
75814;SDS011;64451;45.574;14.224;2023-02-01T12:58:44;17.73;;;7.45;;
75814;SDS011;64451;45.574;14.224;2023-02-01T13:01:11;20.52;;;7.38;;
75814;SDS011;64451;45.574;14.224;2023-02-01T13:03:27;18.45;;;7.60;;
75814;SDS011;64451;45.574;14.224;2023-02-01T13:05:44;18.67;;;7.88;;
75814;SDS011;64451;45.574;14.224;2023-02-01T13:07:58;16.25;;;7.82;;
75814;SDS011;64451;45.574;14.224;2023-02-01T13:10:11;14.10;;;6.07;;
75814;SDS011;64451;45.574;14.224;2023-02-01T13:12:13;19.92;;;7.60;;
75814;SDS011;64451;45.574;14.224;2023-02-01T13:17:37;27.40;;;8.45;;
75814;SDS011;64451;45.574;14.224;2023-02-01T13:19:27;25.40;;;9.18;;
75814;SDS011;64451;45.574;14.224;2023-02-01T13:21:52;19.50;;;7.35;;
75814;SDS011;64451;45.574;14.224;2023-02-01T13:23:56;21.60;;;8.07;;
75814;SDS011;64451;45.574;14.224;2023-02-01T13:25:57;18.48;;;8.13;;
75814;SDS011;64451;45.574;14.224;2023-02-01T13:28:00;14.55;;;7.25;;
75814;SDS011;64451;45.574;14.224;2023-02-01T13:34:59;23.42;;;9.10;;
75814;SDS011;64451;45.574;14.224;2023-02-01T13:44:25;18.25;;;8.95;;
75814;SDS011;64451;45.574;14.224;2023-02-01T13:46:29;18.75;;;8.57;;
75814;SDS011;64451;45.574;14.224;2023-02-01T13:50:53;17.95;;;9.20;;
75814;SDS011;64451;45.574;14.224;2023-02-01T14:01:41;17.60;;;8.20;;
75814;SDS011;64451;45.574;14.224;2023-02-01T14:03:45;19.25;;;8.77;;
75814;SDS011;64451;45.574;14.224;2023-02-01T14:12:45;18.48;;;8.32;;
75814;SDS011;64451;45.574;14.224;2023-02-01T14:14:47;18.35;;;7.78;;
75814;SDS011;64451;45.574;14.224;2023-02-01T14:18:58;18.85;;;9.18;;
75814;SDS011;64451;45.574;14.224;2023-02-01T14:23:15;24.50;;;9.30;;
75814;SDS011;64451;45.574;14.224;2023-02-01T14:25:18;20.17;;;7.75;;
75814;SDS011;64451;45.574;14.224;2023-02-01T14:27:19;21.27;;;9.20;;